createdAt,value
2023-01-05T00:01:03.965Z,100798.78
2023-01-05T00:03:32.191Z,100805.63
2023-01-05T00:06:01.757Z,100803.81
2023-01-05T00:08:36.738Z,100802.06
2023-01-05T00:11:23.743Z,100806.38
2023-01-05T00:14:09.148Z,100806.44
2023-01-05T00:16:54.561Z,100799.50
2023-01-05T00:19:54.129Z,100803.75
2023-01-05T00:22:32.835Z,100798.53
2023-01-05T00:25:11.576Z,100799.25
2023-01-05T00:27:41.448Z,100802.66
2023-01-05T00:30:11.071Z,100806.03
2023-01-05T00:32:39.164Z,100805.91
2023-01-05T00:35:07.782Z,100811.84
2023-01-05T00:37:38.149Z,100806.59
2023-01-05T00:40:09.877Z,100804.84
2023-01-05T00:42:38.114Z,100808.16
2023-01-05T00:45:07.820Z,100810.72
2023-01-05T00:47:35.797Z,100802.06
2023-01-05T00:50:03.986Z,100817.50
2023-01-05T00:52:35.007Z,100806.31
2023-01-05T00:55:02.937Z,100808.06
2023-01-05T00:57:32.291Z,100826.06
2023-01-05T01:00:02.035Z,100823.50
2023-01-05T01:02:30.062Z,100818.44
2023-01-05T01:04:58.135Z,100838.06
2023-01-05T01:07:26.009Z,100831.34
2023-01-05T01:09:56.769Z,100823.50
2023-01-05T01:12:24.756Z,100834.75
2023-01-05T01:14:54.098Z,100832.16
2023-01-05T01:17:22.067Z,100837.34
2023-01-05T01:19:50.159Z,100838.34
2023-01-05T01:22:18.184Z,100840.06
2023-01-05T01:24:46.052Z,100840.22
2023-01-05T01:27:13.961Z,100843.69
2023-01-05T01:29:41.983Z,100833.53
2023-01-05T01:32:11.248Z,100844.69
2023-01-05T01:34:39.969Z,100840.47
2023-01-05T01:37:07.947Z,100846.53
2023-01-05T01:39:35.927Z,100854.97
2023-01-05T01:42:03.961Z,100854.19
2023-01-05T01:44:52.532Z,100864.47
2023-01-05T01:47:29.325Z,100863.66
2023-01-05T01:50:00.944Z,100851.78
2023-01-05T01:52:32.111Z,100861.25
2023-01-05T01:55:02.540Z,100863.75
2023-01-05T01:57:30.910Z,100864.63
2023-01-05T02:00:02.946Z,100873.13
2023-01-05T02:02:32.317Z,100869.78
2023-01-05T02:05:05.469Z,100867.28
2023-01-05T02:07:36.152Z,100877.53
2023-01-05T02:10:05.572Z,100872.47
2023-01-05T02:12:41.953Z,100868.25
2023-01-05T02:15:25.676Z,100871.59
2023-01-05T02:18:14.076Z,100881.06
2023-01-05T02:20:59.895Z,100884.53
2023-01-05T02:24:04.878Z,100891.53
2023-01-05T02:27:11.645Z,100890.56
2023-01-05T02:30:23.816Z,100888.03
2023-01-05T02:32:58.429Z,100892.38
2023-01-05T02:35:35.913Z,100906.06
2023-01-05T02:38:12.361Z,100903.59
2023-01-05T02:40:46.780Z,100911.28
2023-01-05T02:43:16.730Z,100909.72
2023-01-05T02:45:44.677Z,100920.06
2023-01-05T02:48:13.993Z,100926.81
2023-01-05T02:50:46.696Z,100916.59
2023-01-05T02:53:20.592Z,100928.66
2023-01-05T02:55:53.422Z,100915.88
2023-01-05T02:58:24.883Z,100926.91
2023-01-05T03:00:57.342Z,100922.84
2023-01-05T03:03:32.831Z,100929.69
2023-01-05T03:06:05.025Z,100924.59
2023-01-05T03:08:34.597Z,100935.75
2023-01-05T03:11:23.256Z,100937.44
2023-01-05T03:13:56.744Z,100941.75
2023-01-05T03:16:29.409Z,100955.47
2023-01-05T03:19:18.084Z,100964.13
2023-01-05T03:22:05.118Z,100976.09
2023-01-05T03:24:52.453Z,100968.44
2023-01-05T03:27:37.916Z,100986.41
2023-01-05T03:30:25.659Z,100987.38
2023-01-05T03:33:19.186Z,100993.31
2023-01-05T03:35:54.200Z,101001.22
2023-01-05T03:38:30.344Z,101000.28
2023-01-05T03:41:03.011Z,100999.44
2023-01-05T03:43:35.072Z,101001.19
2023-01-05T03:46:10.530Z,101007.19
2023-01-05T03:48:38.578Z,101017.47
2023-01-05T03:51:08.609Z,101007.19
2023-01-05T03:53:36.388Z,101018.53
2023-01-05T03:56:04.663Z,101024.44
2023-01-05T03:58:32.650Z,101021.94
2023-01-05T04:01:00.854Z,101028.81
2023-01-05T04:03:31.894Z,101028.88
2023-01-05T04:06:00.378Z,101045.94
2023-01-05T04:08:29.785Z,101046.97
2023-01-05T04:10:57.824Z,101053.72
2023-01-05T04:13:26.171Z,101045.34
2023-01-05T04:15:54.353Z,101059.75
2023-01-05T04:18:22.316Z,101058.97
2023-01-05T04:20:50.405Z,101051.41
2023-01-05T04:23:18.359Z,101050.50
2023-01-05T04:25:49.173Z,101052.16
2023-01-05T04:28:17.135Z,101059.03
2023-01-05T04:30:45.533Z,101063.28
2023-01-05T04:33:13.700Z,101070.19
2023-01-05T04:35:41.603Z,101064.34
2023-01-05T04:38:09.468Z,101067.69
2023-01-05T04:40:37.369Z,101076.22
2023-01-05T04:43:07.897Z,101075.47
2023-01-05T04:45:35.737Z,101085.69
2023-01-05T04:48:03.712Z,101094.25
2023-01-05T04:50:31.628Z,101103.63
2023-01-05T04:52:59.490Z,101113.97
2023-01-05T04:55:27.912Z,101116.50
2023-01-05T04:57:55.818Z,101120.00
2023-01-05T05:00:25.307Z,101117.44
2023-01-05T05:02:53.286Z,101132.81
2023-01-05T05:05:21.293Z,101138.03
2023-01-05T05:07:49.140Z,101144.88
2023-01-05T05:10:18.265Z,101141.44
2023-01-05T05:12:46.269Z,101151.72
2023-01-05T05:15:14.256Z,101158.56
2023-01-05T05:17:43.672Z,101156.88
2023-01-05T05:20:12.020Z,101166.28
2023-01-05T05:22:39.936Z,101168.88
2023-01-05T05:25:08.881Z,101171.47
2023-01-05T05:27:36.856Z,101174.09
2023-01-05T05:30:05.355Z,101184.34
2023-01-05T05:32:33.339Z,101179.25
2023-01-05T05:35:02.943Z,101179.25
2023-01-05T05:37:30.825Z,101191.22
2023-01-05T05:39:58.711Z,101197.25
2023-01-05T05:42:26.655Z,101198.16
2023-01-05T05:44:54.546Z,101203.31
2023-01-05T05:47:22.509Z,101207.56
2023-01-05T05:49:50.322Z,101208.44
2023-01-05T05:52:19.633Z,101204.22
2023-01-05T05:54:47.589Z,101217.03
2023-01-05T05:57:17.485Z,101223.88
2023-01-05T05:59:45.434Z,101217.91
2023-01-05T06:02:13.419Z,101224.81
2023-01-05T06:04:41.690Z,101230.78
2023-01-05T06:07:09.517Z,101234.22
2023-01-05T06:09:39.092Z,101242.81
2023-01-05T06:12:07.541Z,101247.94
2023-01-05T06:14:35.676Z,101245.38
2023-01-05T06:17:03.536Z,101258.19
2023-01-05T06:19:33.608Z,101254.78
2023-01-05T06:22:01.577Z,101255.69
2023-01-05T06:24:29.464Z,101262.53
2023-01-05T06:26:58.805Z,101263.50
2023-01-05T06:29:26.731Z,101277.13
2023-01-05T06:31:54.643Z,101285.66
2023-01-05T06:34:22.619Z,101279.75
2023-01-05T06:36:50.651Z,101292.56
2023-01-05T06:39:18.685Z,101301.09
2023-01-05T06:41:46.571Z,101317.34
2023-01-05T06:44:15.939Z,101320.75
2023-01-05T06:46:43.831Z,101326.78
2023-01-05T06:49:14.761Z,101337.06
2023-01-05T06:51:42.821Z,101343.06
2023-01-05T06:54:11.259Z,101338.78
2023-01-05T06:56:39.107Z,101350.81
2023-01-05T06:59:06.958Z,101351.69
2023-01-05T07:01:36.485Z,101360.22
2023-01-05T07:04:04.498Z,101367.97
2023-01-05T07:06:32.704Z,101371.41
2023-01-05T07:09:00.600Z,101376.53
2023-01-05T07:11:28.540Z,101379.13
2023-01-05T07:13:56.444Z,101381.72
2023-01-05T07:16:24.532Z,101396.22
2023-01-05T07:18:53.959Z,101386.91
2023-01-05T07:21:21.998Z,101405.75
2023-01-05T07:23:49.867Z,101415.19
2023-01-05T07:26:17.835Z,101421.22
2023-01-05T07:28:45.857Z,101422.06
2023-01-05T07:31:13.951Z,101434.09
2023-01-05T07:33:41.882Z,101430.69
2023-01-05T07:36:11.328Z,101446.97
2023-01-05T07:38:39.242Z,101448.69
2023-01-05T07:41:07.079Z,101459.78
2023-01-05T07:43:35.627Z,101453.81
2023-01-05T07:46:05.080Z,101465.81
2023-01-05T07:48:33.076Z,101467.56
2023-01-05T07:51:02.595Z,101476.94
2023-01-05T07:53:36.924Z,101474.38
2023-01-05T07:56:12.819Z,101487.19
2023-01-05T07:58:41.235Z,101489.78
2023-01-05T08:01:12.804Z,101488.97
2023-01-05T08:03:41.129Z,101503.47
2023-01-05T08:06:10.914Z,101513.69
2023-01-05T08:08:40.453Z,101515.41
2023-01-05T08:11:09.568Z,101523.09
2023-01-05T08:13:55.190Z,101520.56
2023-01-05T08:16:23.928Z,101525.66
2023-01-05T08:18:51.865Z,101523.13
2023-01-05T08:21:19.808Z,101537.69
2023-01-05T08:23:50.444Z,101536.81
2023-01-05T08:26:20.103Z,101541.94
2023-01-05T08:28:48.252Z,101547.06
2023-01-05T08:31:18.334Z,101548.81
2023-01-05T08:33:46.590Z,101559.06
2023-01-05T08:36:16.550Z,101565.00
2023-01-05T08:38:48.540Z,101565.88
2023-01-05T08:41:19.975Z,101575.25
2023-01-05T08:43:51.783Z,101578.69
2023-01-05T08:46:20.276Z,101582.09
2023-01-05T08:48:51.632Z,101593.16
2023-01-05T08:51:20.344Z,101601.72
2023-01-05T08:53:48.891Z,101598.28
2023-01-05T08:56:18.754Z,101617.91
2023-01-05T08:58:46.532Z,101629.84
2023-01-05T09:01:17.218Z,101631.53
2023-01-05T09:03:45.218Z,101634.97
2023-01-05T09:06:13.988Z,101639.22
2023-01-05T09:08:43.601Z,101640.94
2023-01-05T09:11:14.405Z,101645.19
2023-01-05T09:13:47.779Z,101648.63
2023-01-05T09:16:35.137Z,101654.56
2023-01-05T09:19:07.027Z,101655.44
2023-01-05T09:21:35.293Z,101657.97
2023-01-05T09:24:04.125Z,101660.53
2023-01-05T09:26:32.003Z,101666.53
2023-01-05T09:29:01.418Z,101668.22
2023-01-05T09:31:29.411Z,101675.88
2023-01-05T09:33:58.566Z,101675.03
2023-01-05T09:36:26.800Z,101686.97
2023-01-05T09:38:57.212Z,101692.09
2023-01-05T09:41:28.587Z,101692.09
2023-01-05T09:43:59.843Z,101702.34
2023-01-05T09:46:34.596Z,101704.03
2023-01-05T09:49:04.755Z,101709.16
2023-01-05T09:51:33.704Z,101713.41
2023-01-05T09:54:02.798Z,101715.97
2023-01-05T09:57:07.987Z,101715.94
2023-01-05T09:59:26.493Z,101704.03
2023-01-05T10:01:59.721Z,101724.50
2023-01-05T10:04:31.483Z,101721.94
2023-01-05T10:07:03.365Z,101729.63
2023-01-05T10:09:33.852Z,101727.06
2023-01-05T10:12:32.645Z,101733.88
2023-01-05T10:15:06.517Z,101734.72
2023-01-05T10:17:42.729Z,101730.47
2023-01-05T10:20:19.458Z,101746.66
2023-01-05T10:22:59.101Z,101747.53
2023-01-05T10:25:35.996Z,101753.50
2023-01-05T10:28:25.086Z,101752.63
2023-01-05T10:30:59.607Z,101760.31
2023-01-05T10:33:53.100Z,101755.19
2023-01-05T10:39:56.288Z,101773.09
2023-01-05T10:42:37.780Z,101773.97
2023-01-05T10:45:10.459Z,101776.53
2023-01-05T10:47:40.656Z,101779.91
2023-01-05T10:50:27.360Z,101784.19
2023-01-05T10:52:55.731Z,101788.47
2023-01-05T10:55:25.169Z,101798.69
2023-01-05T10:57:53.167Z,101806.38
2023-01-05T11:00:23.199Z,101806.38
2023-01-05T11:02:54.119Z,101821.72
2023-01-05T11:05:29.063Z,101822.59
2023-01-05T11:07:59.624Z,101823.44
2023-01-05T11:10:32.021Z,101831.97
2023-01-05T11:13:05.900Z,101835.38
2023-01-05T11:15:41.110Z,101837.09
2023-01-05T11:18:24.875Z,101843.91
2023-01-05T11:21:14.510Z,101839.66
2023-01-05T11:23:45.101Z,101848.19
2023-01-05T11:26:32.403Z,101849.88
2023-01-05T11:29:15.784Z,101855.88
2023-01-05T11:31:50.619Z,101864.38
2023-01-05T11:34:28.219Z,101877.16
2023-01-05T11:37:05.640Z,101873.78
2023-01-05T11:39:41.020Z,101877.16
2023-01-05T11:42:24.955Z,101876.34
2023-01-05T11:44:55.993Z,101875.44
2023-01-05T11:47:28.731Z,101879.72
2023-01-05T11:50:08.801Z,101891.66
2023-01-05T11:52:40.334Z,101898.47
2023-01-05T11:55:31.152Z,101904.47
2023-01-05T11:58:22.889Z,101918.97
2023-01-05T12:01:33.081Z,101914.72
2023-01-05T12:04:27.291Z,101919.84
2023-01-05T12:07:18.336Z,101921.53
2023-01-05T12:09:55.323Z,101918.97
2023-01-05T12:12:34.810Z,101922.38
2023-01-05T12:15:29.774Z,101921.53
2023-01-05T12:18:09.176Z,101925.78
2023-01-05T12:20:54.426Z,101923.22
2023-01-05T12:23:36.149Z,101931.75
2023-01-05T12:26:16.754Z,101936.88
2023-01-05T12:30:09.071Z,101944.56
2023-01-05T12:35:20.923Z,101956.50
2023-01-05T12:38:06.017Z,101962.47
2023-01-05T12:40:54.136Z,101954.81
2023-01-05T12:43:35.760Z,101967.59
2023-01-05T12:46:14.622Z,101966.75
2023-01-05T12:48:48.240Z,101953.94
2023-01-05T12:51:23.566Z,101963.34
2023-01-05T12:53:55.998Z,101972.69
2023-01-05T12:56:29.628Z,101979.50
2023-01-05T12:59:09.817Z,101984.59
2023-01-05T13:01:43.467Z,101987.13
2023-01-05T13:04:27.385Z,101993.06
2023-01-05T13:07:00.141Z,101994.75
2023-01-05T13:09:32.995Z,102005.81
2023-01-05T13:12:05.453Z,102007.50
2023-01-05T13:14:37.811Z,102008.28
2023-01-05T13:17:13.053Z,102014.22
2023-01-05T13:19:47.596Z,102018.47
2023-01-05T13:22:22.959Z,102020.13
2023-01-05T13:24:56.821Z,102030.31
2023-01-05T13:27:26.162Z,102039.69
2023-01-05T13:29:59.577Z,102046.47
2023-01-05T13:32:40.006Z,102049.00
2023-01-05T13:35:31.250Z,102048.97
2023-01-05T13:38:17.278Z,102050.66
2023-01-05T13:41:13.120Z,102059.19
2023-01-05T13:44:17.804Z,102076.25
2023-01-05T13:47:15.321Z,102076.28
2023-01-05T13:50:08.553Z,102087.34
2023-01-05T13:52:54.693Z,102089.91
2023-01-05T13:55:26.698Z,102088.19
2023-01-05T13:57:56.567Z,102090.72
2023-01-05T14:00:29.670Z,102095.78
2023-01-05T14:03:07.944Z,102100.00
2023-01-05T14:05:47.811Z,102097.44
2023-01-05T14:08:18.744Z,102102.44
2023-01-05T14:11:11.272Z,102105.81
2023-01-05T14:13:45.122Z,102110.09
2023-01-05T14:16:47.999Z,102116.78
2023-01-05T14:19:24.948Z,102130.44
2023-01-05T14:22:05.022Z,102127.81
2023-01-05T14:24:36.783Z,102131.13
2023-01-05T14:27:08.302Z,102132.91
2023-01-05T14:30:00.279Z,102137.97
2023-01-05T14:32:30.139Z,102150.75
2023-01-05T14:35:02.188Z,102155.78
2023-01-05T14:37:36.812Z,102154.97
2023-01-05T14:40:21.847Z,102149.84
2023-01-05T14:42:51.701Z,102162.59
2023-01-05T14:45:24.085Z,102162.44
2023-01-05T14:47:56.221Z,102172.66
2023-01-05T14:50:43.861Z,102187.94
2023-01-05T14:53:35.408Z,102179.38
2023-01-05T14:56:18.169Z,102184.34
2023-01-05T14:59:15.995Z,102192.72
2023-01-05T15:01:50.376Z,102195.25
2023-01-05T15:04:22.236Z,102205.38
2023-01-05T15:07:13.905Z,102207.00
2023-01-05T15:09:57.172Z,102217.97
2023-01-05T15:12:45.870Z,102223.81
2023-01-05T15:15:40.785Z,102233.09
2023-01-05T15:18:49.897Z,102236.38
2023-01-05T15:21:41.362Z,102243.09
2023-01-05T15:25:00.378Z,102248.09
2023-01-05T15:27:40.482Z,102253.19
2023-01-05T15:31:04.976Z,102257.34
2023-01-05T15:33:41.800Z,102251.34
2023-01-05T15:36:23.152Z,102264.09
2023-01-05T15:38:51.706Z,102253.00
2023-01-05T15:41:23.403Z,102269.13
2023-01-05T15:43:52.101Z,102272.50
2023-01-05T15:46:22.197Z,102274.16
2023-01-05T15:48:54.434Z,102280.13
2023-01-05T15:51:28.390Z,102278.34
2023-01-05T15:53:58.597Z,102285.06
2023-01-05T15:56:32.167Z,102291.00
2023-01-05T15:59:00.833Z,102292.59
2023-01-05T16:01:29.858Z,102301.03
2023-01-05T16:04:09.361Z,102306.13
2023-01-05T16:06:39.797Z,102306.97
2023-01-05T16:09:19.102Z,102311.19
2023-01-05T16:11:55.860Z,102321.41
2023-01-05T16:14:28.957Z,102317.16
2023-01-05T16:17:02.335Z,102316.28
2023-01-05T16:19:35.020Z,102318.88
2023-01-05T16:22:09.114Z,102322.28
2023-01-05T16:24:43.353Z,102338.41
2023-01-05T16:27:14.888Z,102345.22
2023-01-05T16:29:45.527Z,102353.78
2023-01-05T16:32:32.539Z,102346.97
2023-01-05T16:35:31.471Z,102355.56
2023-01-05T16:38:18.560Z,102359.81
2023-01-05T16:41:06.529Z,102353.84
2023-01-05T16:43:41.921Z,102355.56
2023-01-05T16:46:32.362Z,102357.19
2023-01-05T16:49:04.812Z,102366.47
2023-01-05T16:51:43.143Z,102371.50
2023-01-05T16:54:23.507Z,102372.34
2023-01-05T16:56:58.071Z,102378.22
2023-01-05T16:59:50.067Z,102379.00
2023-01-05T17:02:43.932Z,102378.91
2023-01-05T17:05:12.753Z,102388.22
2023-01-05T17:07:43.844Z,102388.25
2023-01-05T17:10:18.570Z,102383.91
2023-01-05T17:12:53.397Z,102384.00
2023-01-05T17:15:25.378Z,102395.88
2023-01-05T17:17:55.396Z,102404.38
2023-01-05T17:20:25.176Z,102406.16
2023-01-05T17:22:55.379Z,102403.53
2023-01-05T17:25:23.660Z,102417.19
2023-01-05T17:27:51.605Z,102415.53
2023-01-05T17:30:21.562Z,102423.22
2023-01-05T17:32:50.805Z,102429.97
2023-01-05T17:35:20.060Z,102431.72
2023-01-05T17:37:48.443Z,102438.53
2023-01-05T17:40:20.999Z,102442.78
2023-01-05T17:42:49.358Z,102449.56
2023-01-05T17:45:18.762Z,102451.34
2023-01-05T17:47:47.303Z,102455.56
2023-01-05T17:50:19.153Z,102458.06
2023-01-05T17:52:47.040Z,102459.88
2023-01-05T17:55:15.715Z,102463.28
2023-01-05T17:57:43.713Z,102473.50
2023-01-05T18:00:14.692Z,102464.03
2023-01-05T18:02:42.714Z,102467.47
2023-01-05T18:05:12.369Z,102475.16
2023-01-05T18:07:43.442Z,102470.09
2023-01-05T18:10:15.239Z,102478.47
2023-01-05T18:12:44.739Z,102470.84
2023-01-05T18:15:13.465Z,102482.78
2023-01-05T18:17:42.557Z,102483.63
2023-01-05T18:20:13.627Z,102485.34
2023-01-05T18:22:43.057Z,102492.19
2023-01-05T18:25:12.671Z,102499.84
2023-01-05T18:27:41.293Z,102500.69
2023-01-05T18:30:10.531Z,102500.66
2023-01-05T18:32:38.561Z,102498.94
2023-01-05T18:35:10.010Z,102505.72
2023-01-05T18:37:39.459Z,102506.59
2023-01-05T18:40:10.287Z,102515.19
2023-01-05T18:42:39.183Z,102509.19
2023-01-05T18:45:18.973Z,102523.75
2023-01-05T18:47:56.925Z,102526.41
2023-01-05T18:50:25.198Z,102537.44
2023-01-05T18:52:53.648Z,102544.13
2023-01-05T18:55:23.018Z,102538.19
2023-01-05T18:57:50.957Z,102531.50
2023-01-05T19:00:19.399Z,102535.69
2023-01-05T19:02:47.357Z,102538.25
2023-01-05T19:05:15.433Z,102541.63
2023-01-05T19:07:43.287Z,102543.34
2023-01-05T19:10:11.307Z,102540.03
2023-01-05T19:12:40.686Z,102540.97
2023-01-05T19:15:09.625Z,102546.97
2023-01-05T19:17:37.549Z,102546.09
2023-01-05T19:20:06.245Z,102538.50
2023-01-05T19:22:35.195Z,102552.13
2023-01-05T19:25:03.023Z,102555.53
2023-01-05T19:27:30.992Z,102553.03
2023-01-05T19:30:00.297Z,102558.19
2023-01-05T19:32:28.122Z,102565.03
2023-01-05T19:34:55.945Z,102567.63
2023-01-05T19:37:23.851Z,102569.28
2023-01-05T19:39:51.733Z,102560.78
2023-01-05T19:42:19.625Z,102558.94
2023-01-05T19:44:47.521Z,102558.97
2023-01-05T19:47:16.827Z,102556.34
2023-01-05T19:49:44.762Z,102557.09
2023-01-05T19:52:13.841Z,102554.47
2023-01-05T19:54:42.664Z,102561.22
2023-01-05T19:57:10.555Z,102568.09
2023-01-05T19:59:38.498Z,102563.84
2023-01-05T20:02:07.647Z,102574.00
2023-01-05T20:04:36.961Z,102582.38
2023-01-05T20:07:08.086Z,102589.19
2023-01-05T20:09:36.012Z,102596.84
2023-01-05T20:12:13.914Z,102595.97
2023-01-05T20:14:43.327Z,102595.09
2023-01-05T20:17:12.778Z,102601.81
2023-01-05T20:19:42.296Z,102599.34
2023-01-05T20:22:13.782Z,102605.38
2023-01-05T20:24:43.000Z,102618.25
2023-01-05T20:27:13.468Z,102613.03
2023-01-05T20:29:41.892Z,102622.41
2023-01-05T20:32:12.601Z,102632.47
2023-01-05T20:34:43.290Z,102630.69
2023-01-05T20:37:11.775Z,102638.19
2023-01-05T20:39:41.550Z,102642.28
2023-01-05T20:42:10.966Z,102639.56
2023-01-05T20:44:41.058Z,102631.88
2023-01-05T20:47:10.278Z,102641.94
2023-01-05T20:49:39.597Z,102633.41
2023-01-05T20:52:10.619Z,102630.78
2023-01-05T20:54:38.882Z,102637.56
2023-01-05T20:57:07.305Z,102628.97
2023-01-05T20:59:38.674Z,102624.56
2023-01-05T21:02:18.341Z,102622.78
2023-01-05T21:04:51.297Z,102630.31
2023-01-05T21:07:21.398Z,102634.69
2023-01-05T21:09:50.245Z,102629.66
2023-01-05T21:12:18.474Z,102627.69
2023-01-05T21:14:46.424Z,102626.94
2023-01-05T21:17:14.243Z,102631.00
2023-01-05T21:19:42.151Z,102634.22
2023-01-05T21:22:10.236Z,102624.16
2023-01-05T21:24:39.506Z,102624.09
2023-01-05T21:27:07.451Z,102633.41
2023-01-05T21:29:35.431Z,102629.78
2023-01-05T21:32:03.321Z,102645.84
2023-01-05T21:34:31.319Z,102648.44
2023-01-05T21:36:59.259Z,102658.72
2023-01-05T21:39:28.505Z,102658.63
2023-01-05T21:42:15.364Z,102661.84
2023-01-05T21:44:43.312Z,102665.78
2023-01-05T21:47:11.450Z,102671.53
2023-01-05T21:49:39.386Z,102672.47
2023-01-05T21:52:25.046Z,102685.09
2023-01-05T21:55:10.332Z,102691.06
2023-01-05T21:57:39.623Z,102693.25
2023-01-05T22:00:08.993Z,102695.69
2023-01-05T22:02:36.976Z,102710.00
2023-01-05T22:05:05.740Z,102712.88
2023-01-05T22:07:33.790Z,102719.72
2023-01-05T22:10:01.667Z,102717.00
2023-01-05T22:12:29.618Z,102720.28
2023-01-05T22:14:59.046Z,102728.72
2023-01-05T22:17:26.976Z,102731.94
2023-01-05T22:19:54.922Z,102737.06
2023-01-05T22:22:23.877Z,102731.88
2023-01-05T22:24:51.743Z,102738.88
2023-01-05T22:27:19.644Z,102732.31
2023-01-05T22:29:47.513Z,102745.16
2023-01-05T22:32:16.758Z,102740.06
2023-01-05T22:34:46.449Z,102750.34
2023-01-05T22:37:16.053Z,102750.25
2023-01-05T22:39:43.963Z,102744.47
2023-01-05T22:42:11.828Z,102744.47
2023-01-05T22:44:39.734Z,102756.31
2023-01-05T22:47:07.667Z,102759.63
2023-01-05T22:49:36.977Z,102768.16
2023-01-05T22:52:05.106Z,102771.50
2023-01-05T22:54:33.031Z,102757.13
2023-01-05T22:57:00.992Z,102757.13
2023-01-05T22:59:28.961Z,102751.13
2023-01-05T23:01:56.821Z,102757.03
2023-01-05T23:04:24.856Z,102756.03
2023-01-05T23:06:54.129Z,102758.44
2023-01-05T23:09:22.329Z,102757.59
2023-01-05T23:11:50.202Z,102757.69
2023-01-05T23:14:19.066Z,102759.22
2023-01-05T23:16:47.246Z,102760.44
2023-01-05T23:19:17.033Z,102766.19
2023-01-05T23:21:45.733Z,102765.84
2023-01-05T23:24:15.059Z,102758.97
2023-01-05T23:26:42.920Z,102758.59
2023-01-05T23:29:10.892Z,102761.22
2023-01-05T23:31:38.862Z,102764.59
2023-01-05T23:34:06.778Z,102758.63
2023-01-05T23:36:34.728Z,102761.97
2023-01-05T23:39:02.598Z,102765.53
2023-01-05T23:41:31.999Z,102761.22
2023-01-05T23:43:59.857Z,102769.50
2023-01-05T23:46:27.889Z,102769.34
2023-01-05T23:48:55.874Z,102776.91
2023-01-05T23:51:24.550Z,102782.47
2023-01-05T23:53:54.047Z,102777.31
2023-01-05T23:56:23.403Z,102778.91
2023-01-05T23:58:56.187Z,102777.94
